Eagle Springs, North Carolina
Current Conditions -  °F | °C
As of 1:55 AM on Thursday 23 Oct 2014 (Local Time) from KSOP Reporting Station
Clear Clear  
Wind Chill: 46°   Ceiling: Unl
Heat Index: 46°   Visibility: 10mi
Dew Point: 37°   Wind: 3mph
Humidity: 71%   Direction: 290°WNW
Pressure: 30.05"   Gusts: NA
Location:  35.29°N, 79.65°W
Report Text: KSOP 230555Z AUTO 29003KT 10SM CLR 08/03 A3005 RMK AO1 10130 20080 57003
Loading
Personal Weather Stations






























Interactive Weather Map
Tropical Storm Tracking
New forecast layout! Learn more

10-Day Weather Forecast

Advertisements
Track Severe Weather on mobile